Time;durP1;ratioP1;P1;durP2;ratioP2;P2;SDS_P1;SDS_P2;PMS_P1;PMS_P2;Temp;Humidity;BMP_temperature;BMP_pressure;BME280_temperature;BME280_humidity;BME280_pressure;Samples;Min_cycle;Max_cycle;Signal;HPM_P1;HPM_P2
2024/03/10 00:00:24;;;;;;;9.30;5.40;;;5.60;99.90;;;;;;5104388;28;20039;-71
2024/03/10 00:02:50;;;;;;;10.90;6.00;;;5.70;99.90;;;;;;5091819;28;20491;-71
2024/03/10 00:05:16;;;;;;;9.43;6.03;;;5.70;99.90;;;;;;5074650;28;20036;-72
2024/03/10 00:07:44;;;;;;;11.85;6.85;;;5.70;99.90;;;;;;5068938;28;20037;-72
2024/03/10 00:10:14;;;;;;;11.82;6.82;;;5.70;99.90;;;;;;5085009;28;20411;-73
2024/03/10 00:12:41;;;;;;;11.15;5.15;;;5.70;99.90;;;;;;5085406;28;20062;-72
2024/03/10 00:15:09;;;;;;;7.72;5.28;;;5.70;99.90;;;;;;5072547;28;20047;-72
2024/03/10 00:17:37;;;;;;;11.02;5.72;;;5.70;99.90;;;;;;5071362;28;20438;-73
2024/03/10 00:20:04;;;;;;;9.27;5.57;;;5.70;99.90;;;;;;5101488;28;20044;-73
2024/03/10 00:22:30;;;;;;;9.10;6.18;;;5.70;99.90;;;;;;5067817;28;20510;-73
2024/03/10 00:24:56;;;;;;;7.10;5.10;;;5.70;99.90;;;;;;5087971;28;20050;-73
2024/03/10 00:27:21;;;;;;;9.93;5.65;;;5.70;99.90;;;;;;5065345;28;20036;-72
2024/03/10 00:29:47;;;;;;;10.32;5.53;;;5.70;99.90;;;;;;5087386;28;20044;-74
2024/03/10 00:32:13;;;;;;;10.07;5.45;;;5.70;99.90;;;;;;5086656;28;20035;-72
2024/03/10 00:34:39;;;;;;;13.63;5.85;;;5.70;99.90;;;;;;5071633;28;20044;-73
2024/03/10 00:37:05;;;;;;;5.28;4.00;;;5.70;99.90;;;;;;5073066;28;20457;-72
2024/03/10 00:39:34;;;;;;;7.40;4.45;;;5.70;99.90;;;;;;5088880;28;20514;-72
2024/03/10 00:42:00;;;;;;;9.73;5.60;;;5.70;99.90;;;;;;5085802;28;20036;-72
2024/03/10 00:44:26;;;;;;;15.38;5.72;;;5.60;99.90;;;;;;5089607;28;20439;-73
2024/03/10 00:46:51;;;;;;;8.75;5.32;;;5.60;99.90;;;;;;5086102;28;20032;-72
2024/03/10 00:49:17;;;;;;;11.73;5.70;;;5.70;99.90;;;;;;5073784;28;20391;-73
2024/03/10 00:51:43;;;;;;;11.07;6.90;;;5.70;99.90;;;;;;5086447;28;20547;-72
2024/03/10 00:54:12;;;;;;;11.43;5.97;;;5.70;99.90;;;;;;5085502;28;20044;-73
2024/03/10 00:56:38;;;;;;;7.45;5.28;;;5.70;99.90;;;;;;5084830;28;20139;-72
2024/03/10 00:59:04;;;;;;;10.73;5.28;;;5.70;99.90;;;;;;5088645;28;20127;-72
2024/03/10 01:01:29;;;;;;;8.50;4.70;;;5.70;99.90;;;;;;5086962;28;20103;-72
2024/03/10 01:03:55;;;;;;;9.50;5.25;;;5.70;99.90;;;;;;5087106;28;20507;-74
2024/03/10 01:06:23;;;;;;;12.75;6.88;;;5.70;99.90;;;;;;5068202;28;20092;-73
2024/03/10 01:08:49;;;;;;;11.27;5.72;;;5.70;99.90;;;;;;5084180;28;20040;-72
2024/03/10 01:11:15;;;;;;;10.15;6.35;;;5.70;99.90;;;;;;5083914;28;20060;-72
2024/03/10 01:13:43;;;;;;;12.57;6.45;;;5.70;99.90;;;;;;5085576;28;20045;-72
2024/03/10 01:16:09;;;;;;;8.82;5.18;;;5.70;99.90;;;;;;5105599;28;20088;-72
2024/03/10 01:18:36;;;;;;;6.63;3.72;;;5.70;99.90;;;;;;5086247;28;20271;-72
2024/03/10 01:21:03;;;;;;;7.68;4.80;;;5.60;99.90;;;;;;5070102;28;20046;-72
2024/03/10 01:23:28;;;;;;;10.35;5.65;;;5.60;99.90;;;;;;5068385;28;20052;-73
2024/03/10 01:25:55;;;;;;;9.63;5.45;;;5.60;99.90;;;;;;5070340;28;20040;-73
2024/03/10 01:28:21;;;;;;;9.70;5.38;;;5.60;99.90;;;;;;5086015;28;20044;-72
2024/03/10 01:30:47;;;;;;;8.15;5.32;;;5.60;99.90;;;;;;5069848;28;20480;-72
2024/03/10 01:33:12;;;;;;;7.60;4.72;;;5.60;99.90;;;;;;5087966;28;20046;-72
2024/03/10 01:35:42;;;;;;;11.55;5.88;;;5.60;99.90;;;;;;5088072;28;20040;-73
2024/03/10 01:38:08;;;;;;;7.97;4.93;;;5.60;99.90;;;;;;5068463;28;20043;-73
2024/03/10 01:40:34;;;;;;;7.15;4.20;;;5.60;99.90;;;;;;5069997;28;20032;-72
2024/03/10 01:42:59;;;;;;;10.18;5.53;;;5.50;99.90;;;;;;5084446;28;20380;-72
2024/03/10 01:45:25;;;;;;;10.25;6.05;;;5.50;99.90;;;;;;5087228;28;20296;-73
2024/03/10 01:47:52;;;;;;;7.72;4.10;;;5.50;99.90;;;;;;5084616;28;20039;-72
2024/03/10 01:50:18;;;;;;;11.45;6.78;;;5.60;99.90;;;;;;5087691;28;20071;-72
2024/03/10 01:52:47;;;;;;;11.02;5.28;;;5.60;99.90;;;;;;5087605;28;20455;-72
2024/03/10 01:55:17;;;;;;;8.48;4.38;;;5.60;99.90;;;;;;5067858;28;20063;-72
2024/03/10 01:57:45;;;;;;;9.32;5.03;;;5.50;99.90;;;;;;5086035;28;20048;-72
2024/03/10 02:00:13;;;;;;;11.13;6.88;;;5.60;99.90;;;;;;5103768;28;20136;-72
2024/03/10 02:02:42;;;;;;;12.30;7.43;;;5.60;99.90;;;;;;5086697;28;20083;-72
2024/03/10 02:05:09;;;;;;;11.10;6.53;;;5.60;99.90;;;;;;5082623;28;20067;-72
2024/03/10 02:07:35;;;;;;;5.32;3.90;;;5.60;99.90;;;;;;5088151;28;20399;-72
2024/03/10 02:10:02;;;;;;;7.85;4.78;;;5.60;99.90;;;;;;5081047;28;20410;-72
2024/03/10 02:12:28;;;;;;;9.95;4.60;;;5.60;99.90;;;;;;5086841;28;20478;-72
2024/03/10 02:15:01;;;;;;;10.75;5.25;;;5.70;99.90;;;;;;5083334;28;20044;-72
2024/03/10 02:17:28;;;;;;;7.80;3.92;;;5.70;99.90;;;;;;5070332;28;20052;-72
2024/03/10 02:19:57;;;;;;;10.95;6.85;;;5.70;99.90;;;;;;5064782;28;20064;-72
2024/03/10 02:22:24;;;;;;;8.35;4.68;;;5.60;99.90;;;;;;5087044;28;20036;-73
2024/03/10 02:24:57;;;;;;;11.68;5.25;;;5.60;99.90;;;;;;5084533;28;20073;-72
2024/03/10 02:27:24;;;;;;;9.23;5.65;;;5.60;99.90;;;;;;5088125;28;20074;-72
2024/03/10 02:49:30;;;;;;;9.73;4.20;;;5.60;99.90;;;;;;5086480;28;20362;-72
2024/03/10 02:51:56;;;;;;;8.93;4.78;;;5.60;99.90;;;;;;5079559;28;20402;-73
2024/03/10 02:54:22;;;;;;;7.07;4.43;;;5.60;99.90;;;;;;5101536;28;20048;-72
2024/03/10 02:56:48;;;;;;;8.90;5.45;;;5.60;99.90;;;;;;5100596;28;20052;-72
2024/03/10 02:59:14;;;;;;;7.82;3.80;;;5.60;99.90;;;;;;5084968;28;20430;-72
2024/03/10 03:01:40;;;;;;;11.13;5.43;;;5.60;99.90;;;;;;5098949;28;20055;-72
2024/03/10 03:04:06;;;;;;;13.85;6.97;;;5.50;99.90;;;;;;5067391;28;20039;-72
2024/03/10 03:06:34;;;;;;;9.07;5.65;;;5.60;99.90;;;;;;5069290;28;20040;-72
2024/03/10 03:09:02;;;;;;;9.88;5.32;;;5.60;99.90;;;;;;5083806;28;20458;-72
2024/03/10 03:11:28;;;;;;;11.00;4.75;;;5.60;99.90;;;;;;5101328;28;20124;-72
2024/03/10 03:13:53;;;;;;;8.55;4.50;;;5.50;99.90;;;;;;5068493;28;20126;-72
2024/03/10 03:16:19;;;;;;;8.63;4.10;;;5.50;99.90;;;;;;5087655;28;20042;-72
2024/03/10 03:18:45;;;;;;;8.23;4.82;;;5.50;99.90;;;;;;5103620;28;20518;-72
2024/03/10 03:21:11;;;;;;;6.47;3.80;;;5.50;99.90;;;;;;5070919;28;20062;-72
2024/03/10 03:23:36;;;;;;;6.70;4.65;;;5.50;99.90;;;;;;5101738;28;20052;-73
2024/03/10 03:26:02;;;;;;;7.38;5.03;;;5.40;99.90;;;;;;5088854;28;20036;-72
2024/03/10 03:28:28;;;;;;;11.60;5.93;;;5.40;99.90;;;;;;5088213;28;20070;-73
2024/03/10 03:30:55;;;;;;;10.57;4.28;;;5.40;99.90;;;;;;5086093;28;20108;-72
2024/03/10 03:33:21;;;;;;;7.45;4.57;;;5.40;99.90;;;;;;5084428;28;20037;-72
2024/03/10 03:35:48;;;;;;;8.80;5.15;;;5.40;99.90;;;;;;5089539;28;20040;-72
2024/03/10 03:38:14;;;;;;;11.88;5.40;;;5.40;99.90;;;;;;5085327;28;20044;-72
2024/03/10 03:40:40;;;;;;;6.95;4.43;;;5.40;99.90;;;;;;5087128;28;20048;-72
2024/03/10 03:43:07;;;;;;;11.43;5.05;;;5.40;99.90;;;;;;5072319;28;20044;-73
2024/03/10 03:45:33;;;;;;;8.00;4.05;;;5.40;99.90;;;;;;5070418;28;20395;-73
2024/03/10 03:47:59;;;;;;;9.80;5.43;;;5.40;99.90;;;;;;5088287;28;20036;-73
2024/03/10 03:50:26;;;;;;;10.13;4.75;;;5.40;99.90;;;;;;5085674;28;20418;-73
2024/03/10 03:52:52;;;;;;;11.95;5.57;;;5.40;99.90;;;;;;5088043;28;20051;-73
2024/03/10 03:55:18;;;;;;;12.25;7.15;;;5.40;99.90;;;;;;5088240;28;20467;-73
2024/03/10 03:57:45;;;;;;;10.20;5.45;;;5.40;99.90;;;;;;5087163;28;20040;-72
2024/03/10 04:00:12;;;;;;;7.60;4.88;;;5.40;99.90;;;;;;5086717;28;20044;-73
2024/03/10 04:02:40;;;;;;;12.27;5.55;;;5.30;99.90;;;;;;5101533;28;20124;-73
2024/03/10 04:05:07;;;;;;;13.10;5.13;;;5.30;99.90;;;;;;5077739;28;20040;-74
2024/03/10 04:07:33;;;;;;;9.55;5.28;;;5.30;99.90;;;;;;5071347;28;20040;-73
2024/03/10 04:09:58;;;;;;;10.00;5.95;;;5.30;99.90;;;;;;5088841;28;20476;-73
2024/03/10 04:12:24;;;;;;;11.80;6.40;;;5.30;99.90;;;;;;5086671;28;20040;-73
2024/03/10 04:14:50;;;;;;;10.77;5.75;;;5.30;99.90;;;;;;5098261;28;20549;-73
2024/03/10 04:17:16;;;;;;;9.13;5.40;;;5.30;99.90;;;;;;5088303;28;20381;-72
2024/03/10 04:19:43;;;;;;;8.77;4.15;;;5.30;99.90;;;;;;5068934;28;20094;-73
2024/03/10 04:22:09;;;;;;;8.93;4.57;;;5.20;99.90;;;;;;5104135;28;20135;-73
2024/03/10 04:24:37;;;;;;;7.80;5.13;;;5.20;99.90;;;;;;5067094;28;20456;-73
2024/03/10 04:27:03;;;;;;;9.40;4.93;;;5.20;99.90;;;;;;5083008;28;20109;-72
2024/03/10 04:29:28;;;;;;;8.48;5.05;;;5.20;99.90;;;;;;5083693;28;20036;-72
2024/03/10 04:31:54;;;;;;;7.50;4.68;;;5.20;99.90;;;;;;5083395;28;20134;-73
2024/03/10 04:34:20;;;;;;;7.78;4.93;;;5.10;99.90;;;;;;5085912;28;20032;-73
2024/03/10 04:36:45;;;;;;;10.65;5.35;;;5.10;99.90;;;;;;5085131;28;20081;-73
2024/03/10 04:39:11;;;;;;;9.38;5.25;;;5.00;99.90;;;;;;5089247;28;20043;-74
2024/03/10 04:41:37;;;;;;;7.82;4.45;;;5.00;99.90;;;;;;5069043;28;20495;-72
2024/03/10 04:44:04;;;;;;;7.90;3.45;;;5.00;99.90;;;;;;5087268;28;20036;-73
2024/03/10 04:46:30;;;;;;;10.07;5.75;;;4.90;99.90;;;;;;5076319;28;20054;-72
2024/03/10 04:48:57;;;;;;;12.52;5.25;;;4.90;99.90;;;;;;5088287;28;20048;-73
2024/03/10 04:51:24;;;;;;;9.38;5.45;;;4.90;99.90;;;;;;5085872;28;20098;-73
2024/03/10 04:53:50;;;;;;;9.70;5.47;;;4.80;99.90;;;;;;5090273;28;20073;-72
2024/03/10 04:56:16;;;;;;;11.63;6.00;;;4.80;99.90;;;;;;5085390;28;20508;-72
2024/03/10 04:58:42;;;;;;;9.20;5.05;;;4.80;99.90;;;;;;5076593;28;20052;-72
2024/03/10 05:01:12;;;;;;;8.95;4.82;;;4.70;99.90;;;;;;5081407;28;20043;-72
2024/03/10 05:03:39;;;;;;;9.35;5.05;;;4.70;99.90;;;;;;5084502;28;20043;-71
2024/03/10 05:06:06;;;;;;;9.30;4.55;;;4.70;99.90;;;;;;5088938;28;20063;-71
2024/03/10 05:08:33;;;;;;;8.63;5.45;;;4.70;99.90;;;;;;5086179;28;20041;-72
2024/03/10 05:11:03;;;;;;;12.38;5.90;;;4.70;99.90;;;;;;5088162;28;20036;-72
2024/03/10 05:13:33;;;;;;;7.28;4.55;;;4.60;99.90;;;;;;5084634;28;20290;-73
2024/03/10 05:15:59;;;;;;;7.20;5.50;;;4.60;99.90;;;;;;5087938;28;20105;-72
2024/03/10 05:18:26;;;;;;;6.55;3.50;;;4.60;99.90;;;;;;5069956;28;20036;-72
2024/03/10 05:20:52;;;;;;;6.00;4.53;;;4.60;99.90;;;;;;5063927;28;20102;-72
2024/03/10 05:23:17;;;;;;;6.70;4.38;;;4.60;99.90;;;;;;5072217;28;20055;-72
2024/03/10 05:25:43;;;;;;;9.60;4.50;;;4.60;99.90;;;;;;5086599;28;20036;-71
2024/03/10 05:28:10;;;;;;;10.55;4.78;;;4.50;99.90;;;;;;5087539;28;20061;-71
2024/03/10 05:30:37;;;;;;;8.20;4.63;;;4.50;99.90;;;;;;5084737;28;20040;-72
2024/03/10 05:33:05;;;;;;;7.40;4.28;;;4.50;99.90;;;;;;5089199;28;20130;-72
2024/03/10 05:35:31;;;;;;;8.07;3.95;;;4.50;99.90;;;;;;5081632;28;20070;-71
2024/03/10 05:37:57;;;;;;;8.52;4.95;;;4.40;99.90;;;;;;5087655;28;20094;-72
2024/03/10 05:40:23;;;;;;;6.43;4.95;;;4.40;99.90;;;;;;5083151;28;20039;-72
2024/03/10 05:42:48;;;;;;;12.68;5.03;;;4.40;99.90;;;;;;5102340;28;20043;-72
2024/03/10 05:45:14;;;;;;;14.32;5.93;;;4.40;99.90;;;;;;5083938;28;20032;-72
2024/03/10 05:47:40;;;;;;;10.13;4.85;;;4.40;99.90;;;;;;5088134;28;20079;-72
2024/03/10 05:50:06;;;;;;;15.30;7.50;;;4.40;99.90;;;;;;5083059;28;20040;-72
2024/03/10 05:52:32;;;;;;;6.80;4.00;;;4.30;99.90;;;;;;5071970;28;20032;-71
2024/03/10 05:54:58;;;;;;;12.30;5.50;;;4.30;99.90;;;;;;5069102;28;20044;-73
2024/03/10 05:57:25;;;;;;;10.68;5.07;;;4.30;99.90;;;;;;5088077;28;20043;-72
2024/03/10 05:59:50;;;;;;;12.90;7.30;;;4.30;99.90;;;;;;5086287;28;20118;-72
2024/03/10 06:02:16;;;;;;;10.43;5.30;;;4.30;99.90;;;;;;5087973;28;20135;-72
2024/03/10 06:04:43;;;;;;;8.15;5.75;;;4.30;99.90;;;;;;5084444;28;20077;-71
2024/03/10 06:07:11;;;;;;;12.65;5.10;;;4.30;99.90;;;;;;5067376;28;20493;-71
2024/03/10 06:09:37;;;;;;;8.27;4.47;;;4.30;99.90;;;;;;5082750;28;20036;-71
2024/03/10 06:12:03;;;;;;;11.93;6.65;;;4.30;99.90;;;;;;5069109;28;20090;-72
2024/03/10 06:14:32;;;;;;;8.82;4.53;;;4.20;99.90;;;;;;5084640;28;20479;-73
2024/03/10 06:16:58;;;;;;;14.10;7.15;;;4.20;99.90;;;;;;5084611;28;20036;-72
2024/03/10 06:27:39;;;;;;;10.35;6.93;;;4.20;99.90;;;;;;5083188;28;20055;-73
2024/03/10 06:30:06;;;;;;;10.05;5.82;;;4.20;99.90;;;;;;5084022;28;20075;-72
2024/03/10 06:32:32;;;;;;;12.95;5.90;;;4.20;99.90;;;;;;5067024;28;20123;-71
2024/03/10 06:34:58;;;;;;;8.68;4.70;;;4.20;99.90;;;;;;5083930;28;20119;-71
2024/03/10 06:37:23;;;;;;;11.43;6.50;;;4.20;99.90;;;;;;5081734;28;20040;-71
2024/03/10 06:39:49;;;;;;;13.27;7.00;;;4.30;99.90;;;;;;5063546;28;20465;-73
2024/03/10 06:42:15;;;;;;;10.63;6.00;;;4.30;99.90;;;;;;5085473;28;20044;-73
2024/03/10 06:44:41;;;;;;;8.52;5.10;;;4.30;99.90;;;;;;5097505;28;20391;-72
2024/03/10 06:47:07;;;;;;;13.18;6.97;;;4.30;99.90;;;;;;5079517;28;20101;-72
2024/03/10 06:49:33;;;;;;;8.38;5.55;;;4.30;99.90;;;;;;5073356;28;20032;-72
2024/03/10 06:51:58;;;;;;;10.00;5.82;;;4.40;99.90;;;;;;5087190;28;20059;-73
2024/03/10 06:54:24;;;;;;;8.25;5.18;;;4.40;99.90;;;;;;5088738;28;20077;-73
2024/03/10 06:56:50;;;;;;;13.02;7.75;;;4.40;99.90;;;;;;5069228;28;20051;-72
2024/03/10 06:59:16;;;;;;;11.18;6.63;;;4.40;99.90;;;;;;5073801;28;20075;-72
2024/03/10 07:01:45;;;;;;;17.05;7.22;;;4.50;99.90;;;;;;5086366;28;20067;-72
2024/03/10 07:04:11;;;;;;;10.60;6.72;;;4.50;99.90;;;;;;5086665;28;20036;-72
2024/03/10 07:06:40;;;;;;;9.07;5.57;;;4.50;99.90;;;;;;5077969;28;20122;-72
2024/03/10 07:09:09;;;;;;;10.70;7.40;;;4.60;99.90;;;;;;5087896;28;20466;-72
2024/03/10 07:11:36;;;;;;;14.80;7.55;;;4.60;99.90;;;;;;5072268;28;20040;-72
2024/03/10 07:14:02;;;;;;;12.98;7.10;;;4.60;99.90;;;;;;5070002;28;20028;-72
2024/03/10 07:16:28;;;;;;;13.02;6.43;;;4.70;99.90;;;;;;5087646;28;20044;-72
2024/03/10 07:18:54;;;;;;;12.02;7.57;;;4.70;99.90;;;;;;5104113;28;20066;-71
2024/03/10 07:21:20;;;;;;;11.82;6.80;;;4.70;99.90;;;;;;5082659;28;20047;-71
2024/03/10 07:23:46;;;;;;;13.15;7.22;;;4.80;99.90;;;;;;5067474;28;20044;-71
2024/03/10 07:26:13;;;;;;;13.25;7.95;;;4.80;99.90;;;;;;5067283;28;20137;-71
2024/03/10 07:28:39;;;;;;;7.90;5.07;;;4.90;99.90;;;;;;5087160;28;20121;-71
2024/03/10 07:31:05;;;;;;;10.25;5.60;;;4.90;99.90;;;;;;5069340;28;20044;-72
2024/03/10 07:33:34;;;;;;;11.00;6.68;;;4.90;99.90;;;;;;5105123;28;20112;-71
2024/03/10 07:36:00;;;;;;;12.55;6.38;;;4.90;99.90;;;;;;5097127;28;20040;-71
2024/03/10 07:38:27;;;;;;;17.83;7.15;;;5.00;99.90;;;;;;5087882;28;20353;-73
2024/03/10 07:40:54;;;;;;;10.25;6.25;;;5.00;99.90;;;;;;5068773;28;20040;-72
2024/03/10 07:43:20;;;;;;;11.77;5.78;;;5.00;99.90;;;;;;5068608;28;20398;-72
2024/03/10 07:45:46;;;;;;;10.88;6.35;;;5.00;99.90;;;;;;5077081;28;20055;-73
2024/03/10 07:48:12;;;;;;;11.82;6.55;;;5.00;99.90;;;;;;5083174;28;20475;-72
2024/03/10 07:50:38;;;;;;;10.38;5.53;;;5.00;99.90;;;;;;5088079;28;20042;-72
2024/03/10 07:53:04;;;;;;;13.15;5.35;;;5.10;99.90;;;;;;5103497;28;20450;-72
2024/03/10 07:55:30;;;;;;;10.10;6.70;;;5.20;99.90;;;;;;5088680;28;20383;-72
2024/03/10 07:57:59;;;;;;;10.55;7.35;;;5.20;99.90;;;;;;5085460;28;20053;-72
2024/03/10 08:00:26;;;;;;;10.82;6.10;;;5.30;99.90;;;;;;5086062;28;20182;-72
2024/03/10 08:02:56;;;;;;;16.92;8.88;;;5.30;99.90;;;;;;5089144;28;20040;-72
2024/03/10 08:05:22;;;;;;;10.95;5.72;;;5.40;99.90;;;;;;5090417;28;20090;-72
2024/03/10 08:07:48;;;;;;;15.50;9.13;;;5.40;99.90;;;;;;5090335;28;20040;-72
2024/03/10 08:10:15;;;;;;;10.05;6.05;;;5.50;99.90;;;;;;5087342;28;20074;-72
2024/03/10 08:12:45;;;;;;;16.60;8.95;;;5.60;99.90;;;;;;5081192;28;20148;-73
2024/03/10 08:15:12;;;;;;;17.02;8.45;;;5.80;99.90;;;;;;5102369;28;20040;-74
2024/03/10 08:17:38;;;;;;;13.70;7.00;;;6.10;99.90;;;;;;5086988;28;20036;-72
2024/03/10 08:20:08;;;;;;;9.40;6.00;;;6.30;99.90;;;;;;5069098;28;20044;-72
2024/03/10 08:22:38;;;;;;;13.70;7.38;;;6.30;99.90;;;;;;5094955;28;20036;-73
2024/03/10 08:25:04;;;;;;;13.45;7.25;;;6.30;99.90;;;;;;5101627;28;20497;-73
2024/03/10 08:27:31;;;;;;;11.85;6.65;;;6.30;99.90;;;;;;5084540;28;20490;-73
2024/03/10 08:29:57;;;;;;;14.80;8.10;;;6.30;99.90;;;;;;5086458;28;20039;-74
2024/03/10 08:32:23;;;;;;;15.40;6.38;;;6.30;99.90;;;;;;5084717;28;20782;-72
2024/03/10 08:34:50;;;;;;;13.43;6.60;;;6.50;99.90;;;;;;5072286;28;20464;-73
2024/03/10 08:37:19;;;;;;;16.52;8.00;;;6.60;99.90;;;;;;5098214;28;20052;-72
2024/03/10 08:39:47;;;;;;;12.80;7.85;;;6.70;99.90;;;;;;5083249;28;20046;-74
2024/03/10 08:42:15;;;;;;;12.10;6.78;;;6.90;99.90;;;;;;5086702;28;20040;-74
2024/03/10 08:44:44;;;;;;;21.58;8.07;;;7.00;99.90;;;;;;5084373;28;20043;-74
2024/03/10 08:47:11;;;;;;;14.32;6.70;;;7.10;99.90;;;;;;5070852;28;20043;-74
2024/03/10 08:49:38;;;;;;;12.05;6.60;;;7.00;99.90;;;;;;5087670;28;20079;-74
2024/03/10 08:52:07;;;;;;;15.95;8.23;;;7.10;99.90;;;;;;5104837;28;20032;-74
2024/03/10 08:54:36;;;;;;;12.30;7.13;;;7.10;99.90;;;;;;5104267;28;20032;-74
2024/03/10 08:57:04;;;;;;;12.32;7.20;;;7.20;99.90;;;;;;5100158;28;20048;-73
2024/03/10 08:59:31;;;;;;;10.23;5.72;;;7.40;99.90;;;;;;5066368;28;20039;-75
2024/03/10 09:01:57;;;;;;;16.50;8.38;;;7.60;99.90;;;;;;5083517;28;20040;-75
2024/03/10 09:04:23;;;;;;;15.05;7.68;;;8.10;99.90;;;;;;5067736;28;20480;-74
2024/03/10 09:06:50;;;;;;;14.05;7.60;;;8.40;99.90;;;;;;5068159;28;20036;-74
2024/03/10 09:09:18;;;;;;;13.05;8.38;;;8.50;99.90;;;;;;5088018;28;20082;-74
2024/03/10 09:11:45;;;;;;;15.13;8.20;;;8.50;99.90;;;;;;5084359;28;20127;-74
2024/03/10 09:14:11;;;;;;;17.73;9.38;;;8.50;99.90;;;;;;5084765;28;20070;-74
2024/03/10 09:16:37;;;;;;;12.32;6.55;;;8.60;99.90;;;;;;5083708;28;20052;-75
2024/03/10 09:19:05;;;;;;;12.15;6.90;;;8.80;99.90;;;;;;5085331;28;20188;-74
2024/03/10 09:21:34;;;;;;;11.68;6.50;;;8.90;99.90;;;;;;5084926;28;20036;-74
2024/03/10 09:24:00;;;;;;;16.52;6.53;;;8.80;99.90;;;;;;5091622;28;20089;-74
2024/03/10 09:26:28;;;;;;;9.18;5.60;;;8.70;99.90;;;;;;5067225;28;20157;-74
2024/03/10 09:28:57;;;;;;;12.48;7.30;;;9.00;99.90;;;;;;5070282;28;20055;-74
2024/03/10 09:31:24;;;;;;;12.90;7.07;;;9.60;99.90;;;;;;5082685;28;20052;-75
2024/03/10 09:33:54;;;;;;;11.93;6.35;;;9.90;99.90;;;;;;5068705;28;20040;-75
2024/03/10 09:36:20;;;;;;;12.07;7.63;;;10.40;99.90;;;;;;5086978;28;20028;-76
2024/03/10 09:38:45;;;;;;;13.35;6.63;;;11.10;99.90;;;;;;5086681;28;20028;-75
2024/03/10 09:41:12;;;;;;;13.10;7.55;;;11.60;99.90;;;;;;5086513;28;20062;-75
2024/03/10 09:43:40;;;;;;;13.18;7.35;;;12.30;99.90;;;;;;5071323;28;20497;-74
2024/03/10 09:46:13;;;;;;;13.48;7.68;;;12.60;99.90;;;;;;5087407;28;20062;-76
2024/03/10 09:48:43;;;;;;;12.65;6.85;;;12.50;99.90;;;;;;5081314;28;20049;-75
2024/03/10 09:51:13;;;;;;;17.55;7.43;;;12.40;99.90;;;;;;5069930;28;20044;-76
2024/03/10 09:53:40;;;;;;;13.70;7.68;;;12.30;99.90;;;;;;5089358;28;20119;-76
2024/03/10 09:56:11;;;;;;;14.48;7.60;;;12.40;99.90;;;;;;5086046;28;20488;-74
2024/03/10 09:58:50;;;;;;;15.25;8.20;;;12.50;99.90;;;;;;5084871;28;20050;-75
2024/03/10 10:01:18;;;;;;;12.40;7.43;;;12.20;99.90;;;;;;5086413;28;20123;-75
2024/03/10 10:03:52;;;;;;;12.45;7.60;;;11.90;99.90;;;;;;5084246;28;20040;-75
2024/03/10 10:06:22;;;;;;;11.18;6.80;;;12.00;99.90;;;;;;5083281;28;20487;-74
2024/03/10 10:08:55;;;;;;;10.43;6.13;;;12.00;99.90;;;;;;5069827;28;20128;-76
2024/03/10 10:11:25;;;;;;;12.55;6.88;;;12.10;99.90;;;;;;5069153;28;20032;-75
2024/03/10 10:14:09;;;;;;;11.20;6.80;;;12.40;99.90;;;;;;5070831;28;20036;-75
2024/03/10 10:16:36;;;;;;;14.48;8.07;;;12.70;99.90;;;;;;5070131;28;20480;-76
2024/03/10 10:19:06;;;;;;;13.25;7.05;;;12.80;99.90;;;;;;5088977;28;20137;-76
2024/03/10 10:21:35;;;;;;;13.00;7.28;;;12.80;99.90;;;;;;5082452;28;20445;-76
2024/03/10 10:24:01;;;;;;;11.85;7.85;;;12.60;99.90;;;;;;5069121;28;20044;-77
2024/03/10 10:26:27;;;;;;;15.68;7.22;;;12.20;99.90;;;;;;5065319;28;20073;-75
2024/03/10 10:29:09;;;;;;;12.60;7.82;;;12.00;99.90;;;;;;5070850;28;20036;-74
2024/03/10 10:31:38;;;;;;;10.50;6.88;;;11.90;99.90;;;;;;5088839;28;20118;-74
2024/03/10 10:34:06;;;;;;;11.65;7.18;;;11.70;99.90;;;;;;5096114;28;20040;-75
2024/03/10 10:36:36;;;;;;;9.45;6.53;;;11.40;99.90;;;;;;5064984;28;20037;-75
2024/03/10 10:39:08;;;;;;;10.00;5.82;;;11.30;99.90;;;;;;5071580;28;20427;-75
2024/03/10 10:41:37;;;;;;;9.70;5.30;;;11.30;99.90;;;;;;5065475;28;20118;-75
2024/03/10 10:44:06;;;;;;;10.13;5.72;;;11.40;99.90;;;;;;5082059;28;20059;-75
2024/03/10 10:46:36;;;;;;;12.50;7.93;;;11.50;99.90;;;;;;5080520;28;20095;-75
2024/03/10 10:49:05;;;;;;;8.25;6.00;;;11.50;99.90;;;;;;5085093;28;20077;-74
2024/03/10 10:51:35;;;;;;;10.63;6.63;;;11.70;99.90;;;;;;5061821;28;20044;-74
2024/03/10 10:54:09;;;;;;;11.27;6.75;;;12.20;99.90;;;;;;5088858;28;20043;-74
2024/03/10 10:56:35;;;;;;;11.27;7.55;;;12.60;99.90;;;;;;5066386;28;20148;-75
2024/03/10 10:59:02;;;;;;;12.70;7.20;;;12.80;99.90;;;;;;5071609;28;20059;-75
2024/03/10 11:01:28;;;;;;;11.90;6.88;;;12.80;99.90;;;;;;5087005;28;20129;-74
2024/03/10 11:03:54;;;;;;;18.42;7.90;;;12.70;99.90;;;;;;5069705;28;20127;-74
2024/03/10 11:06:20;;;;;;;12.75;6.30;;;12.70;99.90;;;;;;5084730;28;20048;-75
2024/03/10 11:08:49;;;;;;;11.98;6.95;;;12.80;99.90;;;;;;5080163;28;20051;-74
2024/03/10 11:11:48;;;;;;;12.90;7.05;;;12.80;99.90;;;;;;5085423;28;20055;-75
2024/03/10 11:14:16;;;;;;;13.30;7.18;;;12.50;99.90;;;;;;5102454;28;20480;-76
2024/03/10 11:16:42;;;;;;;12.90;7.22;;;12.30;99.90;;;;;;5083075;28;20491;-76
2024/03/10 11:19:17;;;;;;;12.68;7.78;;;12.10;99.90;;;;;;5079972;28;20068;-76
2024/03/10 11:21:48;;;;;;;9.23;6.68;;;11.80;99.90;;;;;;5068713;28;20465;-74
2024/03/10 11:24:20;;;;;;;10.40;6.25;;;11.80;99.90;;;;;;5095457;28;20032;-74
2024/03/10 11:26:47;;;;;;;13.82;7.70;;;12.10;99.90;;;;;;5081404;28;20060;-73
2024/03/10 11:29:27;;;;;;;9.43;6.35;;;12.40;99.90;;;;;;5085690;28;20040;-75
2024/03/10 11:31:57;;;;;;;10.45;6.63;;;12.50;99.90;;;;;;5067224;28;20115;-73
2024/03/10 11:34:24;;;;;;;11.02;6.25;;;12.70;99.90;;;;;;5087350;28;20503;-75
2024/03/10 11:36:50;;;;;;;12.40;6.97;;;12.90;99.90;;;;;;5089679;28;20032;-74
2024/03/10 11:39:22;;;;;;;12.05;7.07;;;13.30;99.90;;;;;;5085788;28;20385;-74
2024/03/10 11:41:52;;;;;;;10.45;6.63;;;13.50;99.90;;;;;;5095775;28;20175;-75
2024/03/10 11:44:18;;;;;;;13.80;7.30;;;13.40;99.90;;;;;;5073512;28;20032;-75
2024/03/10 11:46:45;;;;;;;7.60;4.43;;;13.40;99.90;;;;;;5086527;28;20484;-76
2024/03/10 11:49:13;;;;;;;10.25;5.82;;;13.20;99.90;;;;;;5088180;28;20391;-76
2024/03/10 11:51:39;;;;;;;10.13;6.40;;;13.10;99.90;;;;;;5089813;28;20078;-75
2024/03/10 11:54:10;;;;;;;11.68;6.65;;;13.00;99.90;;;;;;5084804;28;20039;-75
2024/03/10 11:56:36;;;;;;;9.80;6.50;;;13.10;99.90;;;;;;5086967;28;20091;-75
2024/03/10 11:59:03;;;;;;;8.50;4.78;;;13.00;99.90;;;;;;5101085;28;20071;-75
2024/03/10 12:01:30;;;;;;;11.60;6.68;;;12.70;99.90;;;;;;5089403;28;20082;-76
2024/03/10 12:03:59;;;;;;;14.45;7.03;;;12.50;99.90;;;;;;5087233;28;20043;-75
2024/03/10 12:06:25;;;;;;;10.10;5.78;;;12.70;99.90;;;;;;5089401;28;20039;-74
2024/03/10 12:08:50;;;;;;;13.57;7.57;;;12.90;99.90;;;;;;5072666;28;20044;-75
2024/03/10 12:11:17;;;;;;;12.10;6.00;;;12.80;99.90;;;;;;5102788;28;20040;-76
2024/03/10 12:13:50;;;;;;;9.65;6.35;;;12.70;99.90;;;;;;5089129;28;20070;-74
2024/03/10 12:16:16;;;;;;;13.18;6.93;;;12.70;99.90;;;;;;5087155;28;20401;-75
2024/03/10 12:18:48;;;;;;;11.68;6.38;;;12.50;99.90;;;;;;5089769;28;20123;-88
2024/03/10 12:21:19;;;;;;;12.38;5.88;;;12.30;99.90;;;;;;5071502;28;20476;-81
2024/03/10 12:23:45;;;;;;;9.88;6.05;;;12.10;99.90;;;;;;5086287;28;20040;-82
2024/03/10 12:26:14;;;;;;;10.48;6.25;;;12.00;99.90;;;;;;5074745;28;20414;-71
2024/03/10 12:28:47;;;;;;;9.55;6.13;;;11.90;99.90;;;;;;5100532;28;20059;-82
2024/03/10 12:31:15;;;;;;;9.40;5.95;;;11.80;99.90;;;;;;5093309;28;20525;-81
2024/03/10 12:33:43;;;;;;;8.43;5.07;;;11.80;99.90;;;;;;5099829;28;20036;-80
2024/03/10 12:36:12;;;;;;;8.82;5.72;;;12.10;99.90;;;;;;5096892;28;20051;-83
2024/03/10 12:38:43;;;;;;;11.35;5.90;;;12.40;99.90;;;;;;5096039;28;20075;-80
2024/03/10 12:41:09;;;;;;;11.68;6.55;;;12.60;99.90;;;;;;5079590;28;20043;-79
2024/03/10 12:43:41;;;;;;;12.07;5.75;;;12.80;99.90;;;;;;5093191;28;20659;-81
2024/03/10 12:46:14;;;;;;;10.40;5.38;;;13.00;99.90;;;;;;5090646;28;20048;-83
2024/03/10 12:48:40;;;;;;;10.57;5.82;;;13.20;99.90;;;;;;5094388;28;20045;-81
2024/03/10 12:51:09;;;;;;;11.07;5.80;;;13.70;99.90;;;;;;5094100;28;20476;-82
2024/03/10 12:53:36;;;;;;;10.80;5.85;;;13.90;99.90;;;;;;5073778;28;20036;-83
2024/03/10 12:56:03;;;;;;;9.75;5.53;;;14.10;99.90;;;;;;5100442;28;20056;-82
2024/03/10 12:58:29;;;;;;;11.02;5.85;;;14.30;99.90;;;;;;5094559;28;20261;-82
2024/03/10 13:00:55;;;;;;;8.02;4.85;;;14.20;99.90;;;;;;5076098;28;20040;-82
2024/03/10 13:03:21;;;;;;;10.60;5.82;;;14.20;99.90;;;;;;5073165;28;20124;-82
2024/03/10 13:05:46;;;;;;;12.05;5.35;;;14.20;99.90;;;;;;5088044;28;20040;-86
2024/03/10 13:08:12;;;;;;;10.35;6.35;;;14.30;99.90;;;;;;5104538;28;20572;-82
2024/03/10 13:10:42;;;;;;;8.95;6.00;;;14.10;99.90;;;;;;5086976;28;20036;-83
2024/03/10 13:13:08;;;;;;;9.88;4.82;;;13.90;99.90;;;;;;5101338;28;20136;-84
2024/03/10 13:15:41;;;;;;;10.43;5.45;;;13.60;99.90;;;;;;5086359;28;20487;-86